createdAt,value
2023-02-06T00:00:35.171Z,5.46
2023-02-06T00:01:35.142Z,5.58
2023-02-06T00:02:35.252Z,5.61
2023-02-06T00:03:35.097Z,5.60
2023-02-06T00:04:35.103Z,5.58
2023-02-06T00:05:35.412Z,5.57
2023-02-06T00:06:35.100Z,5.61
2023-02-06T00:07:35.065Z,5.58
2023-02-06T00:08:35.059Z,5.65
2023-02-06T00:09:35.054Z,5.63
2023-02-06T00:10:35.028Z,5.65
2023-02-06T00:11:35.016Z,5.64
2023-02-06T00:12:35.042Z,5.71
2023-02-06T00:13:34.988Z,5.65
2023-02-06T00:14:34.981Z,5.72
2023-02-06T00:15:35.636Z,5.71
2023-02-06T00:16:34.983Z,5.68
2023-02-06T00:17:34.951Z,5.64
2023-02-06T00:18:34.957Z,5.68
2023-02-06T00:19:34.944Z,5.67
2023-02-06T00:20:34.917Z,5.65
2023-02-06T00:21:34.915Z,5.61
2023-02-06T00:22:34.888Z,5.58
2023-02-06T00:23:34.882Z,5.53
2023-02-06T00:24:34.886Z,5.45
2023-02-06T00:25:35.229Z,5.35
2023-02-06T00:26:34.874Z,5.42
2023-02-06T00:27:34.840Z,5.40
2023-02-06T00:28:35.135Z,5.45
2023-02-06T00:29:34.817Z,5.49
2023-02-06T00:30:34.825Z,5.49
2023-02-06T00:31:34.849Z,5.46
2023-02-06T00:32:34.838Z,5.49
2023-02-06T00:33:34.779Z,5.39
2023-02-06T00:34:34.800Z,5.57
2023-02-06T00:35:35.113Z,5.53
2023-02-06T00:36:34.747Z,5.51
2023-02-06T00:37:34.738Z,5.53
2023-02-06T00:38:34.740Z,5.57
2023-02-06T00:39:34.715Z,5.58
2023-02-06T00:40:34.797Z,5.48
2023-02-06T00:41:34.688Z,5.53
2023-02-06T00:42:34.690Z,5.56
2023-02-06T00:43:34.680Z,5.53
2023-02-06T00:44:34.669Z,5.53
2023-02-06T00:45:35.056Z,5.53
2023-02-06T00:46:34.768Z,5.57
2023-02-06T00:47:34.632Z,5.53
2023-02-06T00:48:34.627Z,5.49
2023-02-06T00:49:34.614Z,5.42
2023-02-06T00:50:34.621Z,5.43
2023-02-06T00:51:34.603Z,5.42
2023-02-06T00:52:34.594Z,5.48
2023-02-06T00:53:34.583Z,5.54
2023-02-06T00:54:34.564Z,5.60
2023-02-06T00:55:34.828Z,5.60
2023-02-06T00:56:34.572Z,5.56
2023-02-06T00:57:34.533Z,5.56
2023-02-06T00:58:34.517Z,5.53
2023-02-06T00:59:34.497Z,5.40
2023-02-06T01:00:34.497Z,5.46
2023-02-06T01:01:34.569Z,5.49
2023-02-06T01:02:34.561Z,5.54
2023-02-06T01:03:34.463Z,5.48
2023-02-06T01:04:34.466Z,5.45
2023-02-06T01:05:34.872Z,5.45
2023-02-06T01:06:34.436Z,5.39
2023-02-06T01:07:34.420Z,5.48
2023-02-06T01:08:34.396Z,5.33
2023-02-06T01:09:34.386Z,5.28
2023-02-06T01:10:34.459Z,5.30
2023-02-06T01:11:34.375Z,5.39
2023-02-06T01:12:34.377Z,5.42
2023-02-06T01:13:34.339Z,5.38
2023-02-06T01:14:34.342Z,5.42
2023-02-06T01:15:34.649Z,5.48
2023-02-06T01:16:34.326Z,5.43
2023-02-06T01:17:34.327Z,5.40
2023-02-06T01:18:34.294Z,5.36
2023-02-06T01:19:34.345Z,5.33
2023-02-06T01:20:34.275Z,5.25
2023-02-06T01:21:34.259Z,5.27
2023-02-06T01:22:34.281Z,5.22
2023-02-06T01:23:34.237Z,5.15
2023-02-06T01:24:34.240Z,5.15
2023-02-06T01:25:34.649Z,5.09
2023-02-06T01:26:34.194Z,5.17
2023-02-06T01:27:34.228Z,5.12
2023-02-06T01:28:34.187Z,5.30
2023-02-06T01:29:34.168Z,5.21
2023-02-06T01:30:34.179Z,5.25
2023-02-06T01:31:34.261Z,5.35
2023-02-06T01:32:34.131Z,5.31
2023-02-06T01:33:34.146Z,5.30
2023-02-06T01:34:34.112Z,5.24
2023-02-06T01:35:34.525Z,5.39
2023-02-06T01:36:34.102Z,5.33
2023-02-06T01:37:34.105Z,5.31
2023-02-06T01:38:34.110Z,5.36
2023-02-06T01:39:34.131Z,5.24
2023-02-06T01:40:34.062Z,5.33
2023-02-06T01:41:34.052Z,5.30
2023-02-06T01:42:34.028Z,5.27
2023-02-06T01:43:34.031Z,5.27
2023-02-06T01:44:34.028Z,5.18
2023-02-06T01:45:34.210Z,5.25
2023-02-06T01:46:34.024Z,5.21
2023-02-06T01:47:33.970Z,5.25
2023-02-06T01:48:33.964Z,5.21
2023-02-06T01:49:33.965Z,5.25
2023-02-06T01:50:33.949Z,5.17
2023-02-06T01:51:33.949Z,5.18
2023-02-06T01:52:33.958Z,5.12
2023-02-06T01:53:33.904Z,5.07
2023-02-06T01:54:33.919Z,5.06
2023-02-06T01:55:34.283Z,5.07
2023-02-06T01:56:33.901Z,4.97
2023-02-06T01:57:33.863Z,5.15
2023-02-06T01:58:33.872Z,5.12
2023-02-06T01:59:33.841Z,4.99
2023-02-06T02:00:33.869Z,4.99
2023-02-06T02:01:33.838Z,4.99
2023-02-06T02:02:33.834Z,5.02
2023-02-06T02:03:33.803Z,5.06
2023-02-06T02:04:33.852Z,5.04
2023-02-06T02:05:34.083Z,5.03
2023-02-06T02:06:33.809Z,5.02
2023-02-06T02:07:33.766Z,5.00
2023-02-06T02:08:33.769Z,4.96
2023-02-06T02:09:33.732Z,4.77
2023-02-06T02:10:33.782Z,4.85
2023-02-06T02:11:33.731Z,4.77
2023-02-06T02:12:33.704Z,4.69
2023-02-06T02:13:33.694Z,4.70
2023-02-06T02:14:33.703Z,4.59
2023-02-06T02:15:33.974Z,4.55
2023-02-06T02:16:33.707Z,4.55
2023-02-06T02:17:33.686Z,4.48
2023-02-06T02:18:33.701Z,4.47
2023-02-06T02:19:33.646Z,4.45
2023-02-06T02:20:33.627Z,4.42
2023-02-06T02:21:33.611Z,4.40
2023-02-06T02:22:33.601Z,4.47
2023-02-06T02:23:33.634Z,4.41
2023-02-06T02:24:33.596Z,4.48
2023-02-06T02:25:33.788Z,4.59
2023-02-06T02:26:33.577Z,4.51
2023-02-06T02:27:33.551Z,4.58
2023-02-06T02:28:33.538Z,4.60
2023-02-06T02:29:33.551Z,4.50
2023-02-06T02:30:33.625Z,4.45
2023-02-06T02:31:33.546Z,4.36
2023-02-06T02:32:33.496Z,4.42
2023-02-06T02:33:33.485Z,4.37
2023-02-06T02:34:33.478Z,4.36
2023-02-06T02:35:33.601Z,4.27
2023-02-06T02:36:33.468Z,4.24
2023-02-06T02:37:33.465Z,4.32
2023-02-06T02:38:33.438Z,4.32
2023-02-06T02:39:33.410Z,4.20
2023-02-06T02:40:33.406Z,4.18
2023-02-06T02:41:33.410Z,4.22
2023-02-06T02:42:33.403Z,4.22
2023-02-06T02:43:33.403Z,4.22
2023-02-06T02:44:33.378Z,4.18
2023-02-06T02:45:33.569Z,4.20
2023-02-06T02:46:33.345Z,4.15
2023-02-06T02:47:33.327Z,4.16
2023-02-06T02:48:33.334Z,4.06
2023-02-06T02:49:33.329Z,4.06
2023-02-06T02:50:33.294Z,4.06
2023-02-06T02:51:33.284Z,4.16
2023-02-06T02:52:33.293Z,4.06
2023-02-06T02:53:33.309Z,4.05
2023-02-06T02:54:33.244Z,4.00
2023-02-06T02:55:33.400Z,3.93
2023-02-06T02:56:33.222Z,3.93
2023-02-06T02:57:33.228Z,3.93
2023-02-06T02:58:33.215Z,3.87
2023-02-06T02:59:33.215Z,3.88
2023-02-06T03:00:33.184Z,3.84
2023-02-06T03:01:33.192Z,3.79
2023-02-06T03:02:33.212Z,3.72
2023-02-06T03:03:33.163Z,3.70
2023-02-06T03:04:33.157Z,3.76
2023-02-06T03:05:33.260Z,3.73
2023-02-06T03:06:33.124Z,3.61
2023-02-06T03:07:33.141Z,3.70
2023-02-06T03:08:33.094Z,3.65
2023-02-06T03:09:33.086Z,3.72
2023-02-06T03:10:33.083Z,3.78
2023-02-06T03:11:33.057Z,3.78
2023-02-06T03:12:33.045Z,3.75
2023-02-06T03:13:33.057Z,3.75
2023-02-06T03:14:33.062Z,3.68
2023-02-06T03:15:33.090Z,3.61
2023-02-06T03:16:33.065Z,3.58
2023-02-06T03:17:33.012Z,3.51
2023-02-06T03:18:32.996Z,3.45
2023-02-06T03:19:32.997Z,3.50
2023-02-06T03:20:32.983Z,3.50
2023-02-06T03:21:32.961Z,3.50
2023-02-06T03:22:32.948Z,3.33
2023-02-06T03:23:32.957Z,3.36
2023-02-06T03:24:32.926Z,3.42
2023-02-06T03:25:33.112Z,3.45
2023-02-06T03:26:32.911Z,3.31
2023-02-06T03:27:32.902Z,3.39
2023-02-06T03:28:33.648Z,3.35
2023-02-06T03:29:32.890Z,3.47
2023-02-06T03:30:32.964Z,3.45
2023-02-06T03:31:32.859Z,3.47
2023-02-06T03:32:32.836Z,3.45
2023-02-06T03:33:32.840Z,3.36
2023-02-06T03:34:32.811Z,3.36
2023-02-06T03:35:32.832Z,3.43
2023-02-06T03:36:32.825Z,3.39
2023-02-06T03:37:32.783Z,3.39
2023-02-06T03:38:32.772Z,3.35
2023-02-06T03:39:32.789Z,3.35
2023-02-06T03:40:32.757Z,3.31
2023-02-06T03:41:32.762Z,3.35
2023-02-06T03:42:32.760Z,3.36
2023-02-06T03:43:32.729Z,3.31
2023-02-06T03:44:32.757Z,3.33
2023-02-06T03:45:32.768Z,3.40
2023-02-06T03:46:32.727Z,3.33
2023-02-06T03:47:32.687Z,3.33
2023-02-06T03:48:32.657Z,3.35
2023-02-06T03:49:32.677Z,3.40
2023-02-06T03:50:32.668Z,3.35
2023-02-06T03:51:32.667Z,3.35
2023-02-06T03:52:32.622Z,3.31
2023-02-06T03:53:32.619Z,3.33
2023-02-06T03:54:32.627Z,3.18
2023-02-06T03:55:32.627Z,3.29
2023-02-06T03:56:32.579Z,3.43
2023-02-06T03:57:32.586Z,3.23
2023-02-06T03:58:32.562Z,3.26
2023-02-06T03:59:32.589Z,3.20
2023-02-06T04:00:32.536Z,3.26
2023-02-06T04:01:32.573Z,3.17
2023-02-06T04:02:32.597Z,3.26
2023-02-06T04:03:32.513Z,3.17
2023-02-06T04:04:32.502Z,3.18
2023-02-06T04:05:32.487Z,3.21
2023-02-06T04:06:32.475Z,3.28
2023-02-06T04:07:32.510Z,3.21
2023-02-06T04:08:32.454Z,3.15
2023-02-06T04:09:32.471Z,3.20
2023-02-06T04:10:32.442Z,3.20
2023-02-06T04:11:32.427Z,3.17
2023-02-06T04:12:32.437Z,3.18
2023-02-06T04:13:32.412Z,3.17
2023-02-06T04:14:32.402Z,3.17
2023-02-06T04:15:32.377Z,3.14
2023-02-06T04:16:32.404Z,3.23
2023-02-06T04:17:49.728Z,3.20
2023-02-06T04:18:33.380Z,3.21
2023-02-06T04:19:32.352Z,3.14
2023-02-06T04:20:32.327Z,3.21
2023-02-06T04:21:32.317Z,3.18
2023-02-06T04:22:32.300Z,3.03
2023-02-06T04:23:32.320Z,3.10
2023-02-06T04:24:32.287Z,3.06
2023-02-06T04:25:32.306Z,3.08
2023-02-06T04:26:32.255Z,3.20
2023-02-06T04:27:32.250Z,3.21
2023-02-06T04:28:32.259Z,3.20
2023-02-06T04:29:32.242Z,3.17
2023-02-06T04:30:32.264Z,3.21
2023-02-06T04:31:32.284Z,3.08
2023-02-06T04:32:32.186Z,3.10
2023-02-06T04:33:32.215Z,3.17
2023-02-06T04:34:32.208Z,3.10
2023-02-06T04:35:32.167Z,3.10
2023-02-06T04:36:32.152Z,3.17
2023-02-06T04:37:32.152Z,3.17
2023-02-06T04:38:32.140Z,3.20
2023-02-06T04:39:32.124Z,3.18
2023-02-06T04:40:32.108Z,3.26
2023-02-06T04:41:32.090Z,3.26
2023-02-06T04:42:32.081Z,3.15
2023-02-06T04:43:32.096Z,3.23
2023-02-06T04:44:32.102Z,3.24
2023-02-06T04:45:32.054Z,3.21
2023-02-06T04:46:32.037Z,3.26
2023-02-06T04:47:32.031Z,3.17
2023-02-06T04:48:32.014Z,3.17
2023-02-06T04:49:32.013Z,3.28
2023-02-06T04:50:32.114Z,3.17
2023-02-06T04:51:31.981Z,3.17
2023-02-06T04:52:31.968Z,3.15
2023-02-06T04:53:31.961Z,3.31
2023-02-06T04:54:32.815Z,3.24
2023-02-06T04:55:31.945Z,3.21
2023-02-06T04:56:31.930Z,3.17
2023-02-06T04:57:31.940Z,3.24
2023-02-06T04:58:31.905Z,3.26
2023-02-06T04:59:31.908Z,3.18
2023-02-06T05:00:31.890Z,3.23
2023-02-06T05:01:31.901Z,3.23
2023-02-06T05:02:31.893Z,3.28
2023-02-06T05:03:31.860Z,3.23
2023-02-06T05:04:31.845Z,3.23
2023-02-06T05:05:31.828Z,3.20
2023-02-06T05:06:31.861Z,3.18
2023-02-06T05:07:31.860Z,3.20
2023-02-06T05:08:31.818Z,3.28
2023-02-06T05:09:31.787Z,3.20
2023-02-06T05:10:31.775Z,3.26
2023-02-06T05:11:31.763Z,3.28
2023-02-06T05:12:31.753Z,3.23
2023-02-06T05:13:31.774Z,3.24
2023-02-06T05:14:31.743Z,3.29
2023-02-06T05:15:31.735Z,3.24
2023-02-06T05:16:31.716Z,3.13
2023-02-06T05:17:31.708Z,3.28
2023-02-06T05:18:31.687Z,3.18
2023-02-06T05:19:31.716Z,3.20
2023-02-06T05:20:31.718Z,3.20
2023-02-06T05:21:31.658Z,3.20
2023-02-06T05:22:31.664Z,3.26
2023-02-06T05:23:31.651Z,3.26
2023-02-06T05:24:31.622Z,3.26
2023-02-06T05:25:31.627Z,3.26
2023-02-06T05:26:31.595Z,3.36
2023-02-06T05:27:31.605Z,3.21
2023-02-06T05:28:31.580Z,3.18
2023-02-06T05:29:31.567Z,3.18
2023-02-06T05:30:31.573Z,3.08
2023-02-06T05:31:31.655Z,3.05
2023-02-06T05:32:31.548Z,3.10
2023-02-06T05:33:31.525Z,3.06
2023-02-06T05:34:31.516Z,3.02
2023-02-06T05:35:31.499Z,3.05
2023-02-06T05:36:31.527Z,2.93
2023-02-06T05:37:31.509Z,2.97
2023-02-06T05:38:31.483Z,2.96
2023-02-06T05:39:31.475Z,2.90
2023-02-06T05:40:31.449Z,2.89
2023-02-06T05:41:31.462Z,2.95
2023-02-06T05:42:31.446Z,2.89
2023-02-06T05:43:31.423Z,2.90
2023-02-06T05:44:31.434Z,2.89
2023-02-06T05:45:31.397Z,2.87
2023-02-06T05:46:31.437Z,2.78
2023-02-06T05:47:31.372Z,2.75
2023-02-06T05:48:31.373Z,2.72
2023-02-06T05:49:31.351Z,2.71
2023-02-06T05:50:31.360Z,2.69
2023-02-06T05:51:31.338Z,2.67
2023-02-06T05:52:31.323Z,2.66
2023-02-06T05:53:31.309Z,2.71
2023-02-06T05:54:31.337Z,2.63
2023-02-06T05:55:31.287Z,2.60
2023-02-06T05:56:31.299Z,2.59
2023-02-06T05:57:31.263Z,2.56
2023-02-06T05:58:31.281Z,2.57
2023-02-06T05:59:31.241Z,2.60
2023-02-06T06:00:31.279Z,2.63
2023-02-06T06:01:31.228Z,2.64
2023-02-06T06:02:31.214Z,2.69
2023-02-06T06:03:33.347Z,2.71
2023-02-06T06:04:31.205Z,2.71
2023-02-06T06:05:31.181Z,2.61
2023-02-06T06:06:31.200Z,2.71
2023-02-06T06:07:31.161Z,2.72
2023-02-06T06:08:31.162Z,2.64
2023-02-06T06:09:31.154Z,2.72
2023-02-06T06:10:31.243Z,2.64
2023-02-06T06:11:31.118Z,2.64
2023-02-06T06:12:31.135Z,2.61
2023-02-06T06:13:31.103Z,2.59
2023-02-06T06:14:31.082Z,2.63
2023-02-06T06:15:31.073Z,2.56
2023-02-06T06:16:31.060Z,2.60
2023-02-06T06:17:31.104Z,2.54
2023-02-06T06:18:31.057Z,2.64
2023-02-06T06:19:31.037Z,2.60
2023-02-06T06:20:31.021Z,2.54
2023-02-06T06:21:31.013Z,2.49
2023-02-06T06:22:30.999Z,2.49
2023-02-06T06:23:31.012Z,2.48
2023-02-06T06:24:30.995Z,2.45
2023-02-06T06:25:30.964Z,2.48
2023-02-06T06:26:30.995Z,2.49
2023-02-06T06:27:30.967Z,2.48
2023-02-06T06:28:30.941Z,2.43
2023-02-06T06:29:30.923Z,2.49
2023-02-06T06:30:31.017Z,2.42
2023-02-06T06:31:30.972Z,2.39
2023-02-06T06:32:31.643Z,2.39
2023-02-06T06:33:30.880Z,2.31
2023-02-06T06:34:30.896Z,2.39
2023-02-06T06:35:30.877Z,2.35
2023-02-06T06:36:30.844Z,2.27
2023-02-06T06:37:31.606Z,2.31
2023-02-06T06:38:30.859Z,2.36
2023-02-06T06:39:30.815Z,2.41
2023-02-06T06:40:30.819Z,2.46
2023-02-06T06:41:30.797Z,2.46
2023-02-06T06:42:30.810Z,2.43
2023-02-06T06:43:30.790Z,2.36
2023-02-06T06:44:30.758Z,2.35
2023-02-06T06:45:30.816Z,2.35
2023-02-06T06:46:30.793Z,2.39
2023-02-06T06:47:30.724Z,2.43
2023-02-06T06:48:30.755Z,2.34
2023-02-06T06:49:30.709Z,2.27
2023-02-06T06:50:30.694Z,2.31
2023-02-06T06:51:31.610Z,2.31
2023-02-06T06:52:30.675Z,2.41
2023-02-06T06:53:30.661Z,2.39
2023-02-06T06:54:31.600Z,2.09
2023-02-06T06:55:30.645Z,2.12
2023-02-06T06:56:30.668Z,2.17
2023-02-06T06:57:30.618Z,2.23
2023-02-06T06:58:30.728Z,2.20
2023-02-06T06:59:31.153Z,2.31
2023-02-06T07:00:30.623Z,2.20
2023-02-06T07:01:30.577Z,2.28
2023-02-06T07:02:30.580Z,2.24
2023-02-06T07:03:30.559Z,2.31
2023-02-06T07:04:30.564Z,2.30
2023-02-06T07:05:30.530Z,2.30
2023-02-06T07:06:30.533Z,2.38
2023-02-06T07:07:30.550Z,2.21
2023-02-06T07:08:30.507Z,2.27
2023-02-06T07:09:30.507Z,2.28
2023-02-06T07:10:30.487Z,2.18
2023-02-06T07:11:30.503Z,2.10
2023-02-06T07:12:30.483Z,2.21
2023-02-06T07:13:30.447Z,2.31
2023-02-06T07:14:30.485Z,2.20
2023-02-06T07:15:30.463Z,2.34
2023-02-06T07:16:30.649Z,2.25
2023-02-06T07:17:30.406Z,2.28
2023-02-06T07:18:30.401Z,2.31
2023-02-06T07:19:31.095Z,2.36
2023-02-06T07:20:30.394Z,2.35
2023-02-06T07:21:30.378Z,2.39
2023-02-06T07:22:30.351Z,2.31
2023-02-06T07:23:30.341Z,2.34
2023-02-06T07:24:30.355Z,2.36
2023-02-06T07:25:30.382Z,2.36
2023-02-06T07:26:30.330Z,2.39
2023-02-06T07:27:30.308Z,2.35
2023-02-06T07:28:30.291Z,2.41
2023-02-06T07:29:30.323Z,2.39
2023-02-06T07:30:30.351Z,2.43
2023-02-06T07:31:30.283Z,2.43
2023-02-06T07:32:30.274Z,2.42
2023-02-06T07:33:30.251Z,2.49
2023-02-06T07:34:30.222Z,2.48
2023-02-06T07:35:30.231Z,2.52
2023-02-06T07:36:30.208Z,2.54
2023-02-06T07:37:30.206Z,2.52
2023-02-06T07:38:30.232Z,2.48
2023-02-06T07:39:30.177Z,2.42
2023-02-06T07:40:44.126Z,2.38
2023-02-06T07:41:31.164Z,2.39
2023-02-06T07:42:30.146Z,2.42
2023-02-06T07:43:30.132Z,2.42
2023-02-06T07:44:30.144Z,2.35
2023-02-06T07:45:30.107Z,2.38
2023-02-06T07:46:30.172Z,2.30
2023-02-06T07:47:30.097Z,2.42
2023-02-06T07:48:30.112Z,2.45
2023-02-06T07:49:30.060Z,2.46
2023-02-06T07:50:30.070Z,2.48
2023-02-06T07:51:30.044Z,2.52
2023-02-06T07:52:30.041Z,2.54
2023-02-06T07:53:30.022Z,2.63
2023-02-06T07:54:30.026Z,2.60
2023-02-06T07:55:29.999Z,2.61
2023-02-06T07:56:30.013Z,2.56
2023-02-06T07:57:29.988Z,2.59
2023-02-06T07:58:29.970Z,2.48
2023-02-06T07:59:29.951Z,2.56
2023-02-06T08:00:29.960Z,2.57
2023-02-06T08:01:30.000Z,2.61
2023-02-06T08:02:29.976Z,2.75
2023-02-06T08:03:29.914Z,2.67
2023-02-06T08:04:29.923Z,2.69
2023-02-06T08:05:29.903Z,2.67
2023-02-06T08:06:29.886Z,2.69
2023-02-06T08:07:29.892Z,2.71
2023-02-06T08:08:29.886Z,2.87
2023-02-06T08:09:29.868Z,2.87
2023-02-06T08:10:29.864Z,2.90
2023-02-06T08:11:29.817Z,2.95
2023-02-06T08:12:29.814Z,2.85
2023-02-06T08:13:29.802Z,2.90
2023-02-06T08:14:29.811Z,2.87
2023-02-06T08:15:29.794Z,2.84
2023-02-06T08:16:29.832Z,2.89
2023-02-06T08:17:29.754Z,2.84
2023-02-06T08:18:30.583Z,2.87
2023-02-06T08:19:30.634Z,2.82
2023-02-06T08:20:29.860Z,2.81
2023-02-06T08:21:29.742Z,2.84
2023-02-06T08:22:29.703Z,2.81
2023-02-06T08:23:31.128Z,2.85
2023-02-06T08:24:30.663Z,2.79
2023-02-06T08:25:29.709Z,2.79
2023-02-06T08:26:29.682Z,2.92
2023-02-06T08:27:29.650Z,2.92
2023-02-06T08:28:29.648Z,2.79
2023-02-06T08:29:32.141Z,2.79
2023-02-06T08:30:30.735Z,2.89
2023-02-06T08:31:29.757Z,2.87
2023-02-06T08:32:29.650Z,2.82
2023-02-06T08:33:29.593Z,2.84
2023-02-06T08:34:29.627Z,2.87
2023-02-06T08:35:29.581Z,2.81
2023-02-06T08:36:29.564Z,2.93
2023-02-06T08:37:30.575Z,2.81
2023-02-06T08:38:30.729Z,2.85
2023-02-06T08:39:29.526Z,2.82
2023-02-06T08:40:29.534Z,2.90
2023-02-06T08:41:29.498Z,2.82
2023-02-06T08:42:29.592Z,2.85
2023-02-06T08:43:32.817Z,2.87
2023-02-06T08:44:30.150Z,2.84
2023-02-06T08:45:29.461Z,2.85
2023-02-06T08:46:29.503Z,2.72
2023-02-06T08:47:29.433Z,2.72
2023-02-06T08:48:29.434Z,2.71
2023-02-06T08:49:29.429Z,2.77
2023-02-06T08:50:29.470Z,2.85
2023-02-06T08:51:29.418Z,2.81
2023-02-06T08:52:29.383Z,2.81
2023-02-06T08:53:29.381Z,2.85
2023-02-06T08:54:29.362Z,2.97
2023-02-06T08:55:30.572Z,2.84
2023-02-06T08:56:30.109Z,2.95
2023-02-06T08:57:30.072Z,3.00
2023-02-06T08:58:29.353Z,3.03
2023-02-06T08:59:31.134Z,3.10
2023-02-06T09:00:29.297Z,2.93
2023-02-06T09:01:29.583Z,2.95
2023-02-06T09:02:29.331Z,2.97
2023-02-06T09:03:29.264Z,2.96
2023-02-06T09:04:30.064Z,3.02
2023-02-06T09:05:30.076Z,3.03
2023-02-06T09:06:29.256Z,3.06
2023-02-06T09:07:29.254Z,3.05
2023-02-06T09:08:29.230Z,3.10
2023-02-06T09:09:29.192Z,3.17
2023-02-06T09:10:30.076Z,3.23
2023-02-06T09:11:29.181Z,3.17
2023-02-06T09:12:29.186Z,3.23
2023-02-06T09:13:30.156Z,3.21
2023-02-06T09:14:29.146Z,3.13
2023-02-06T09:15:29.131Z,3.14
2023-02-06T09:16:29.124Z,3.15
2023-02-06T09:17:30.065Z,3.29
2023-02-06T09:18:30.112Z,3.24
2023-02-06T09:19:31.630Z,3.29
2023-02-06T09:20:29.105Z,3.39
2023-02-06T09:21:30.567Z,3.26
2023-02-06T09:22:31.058Z,3.23
2023-02-06T09:23:30.061Z,3.29
2023-02-06T09:24:30.059Z,3.26
2023-02-06T09:25:29.054Z,3.24
2023-02-06T09:26:29.014Z,3.32
2023-02-06T09:27:28.996Z,3.31
2023-02-06T09:28:29.039Z,3.33
2023-02-06T09:29:29.313Z,3.47
2023-02-06T09:30:29.577Z,3.47
2023-02-06T09:31:29.076Z,3.52
2023-02-06T09:32:28.972Z,3.60
2023-02-06T09:33:28.933Z,3.65
2023-02-06T09:34:28.921Z,3.72
2023-02-06T09:35:28.960Z,3.68
2023-02-06T09:36:28.907Z,3.73
2023-02-06T09:37:28.910Z,3.70
2023-02-06T09:38:28.898Z,3.73
2023-02-06T09:39:28.876Z,3.65
2023-02-06T09:40:28.860Z,3.57
2023-02-06T09:41:28.871Z,3.43
2023-02-06T09:42:28.854Z,3.52
2023-02-06T09:43:28.857Z,3.60
2023-02-06T09:44:28.834Z,3.54
2023-02-06T09:45:28.799Z,3.61
2023-02-06T09:46:28.826Z,3.65
2023-02-06T09:47:28.805Z,3.66
2023-02-06T09:48:28.794Z,3.65
2023-02-06T09:49:28.757Z,3.72
2023-02-06T09:50:28.745Z,3.68
2023-02-06T09:51:28.737Z,3.80
2023-02-06T09:52:28.740Z,3.76
2023-02-06T09:53:29.494Z,3.75
2023-02-06T09:54:28.735Z,3.66
2023-02-06T09:55:28.692Z,3.65
2023-02-06T09:56:28.684Z,3.80
2023-02-06T09:57:28.669Z,3.65
2023-02-06T09:58:28.657Z,3.65
2023-02-06T09:59:28.666Z,3.75
2023-02-06T10:00:28.691Z,3.96
2023-02-06T10:01:28.672Z,4.02
2023-02-06T10:02:28.648Z,4.05
2023-02-06T10:03:28.605Z,4.23
2023-02-06T10:04:28.690Z,4.42
2023-02-06T10:05:28.579Z,4.54
2023-02-06T10:06:28.600Z,4.65
2023-02-06T10:07:28.572Z,4.42
2023-02-06T10:08:28.580Z,4.48
2023-02-06T10:09:28.543Z,4.55
2023-02-06T10:10:28.699Z,4.62
2023-02-06T10:11:28.523Z,4.55
2023-02-06T10:12:28.527Z,4.69
2023-02-06T10:13:28.500Z,4.70
2023-02-06T10:14:28.487Z,4.70
2023-02-06T10:15:28.469Z,4.69
2023-02-06T10:16:28.601Z,4.72
2023-02-06T10:17:28.457Z,4.70
2023-02-06T10:18:28.458Z,4.86
2023-02-06T10:19:28.435Z,4.99
2023-02-06T10:20:28.427Z,5.12
2023-02-06T10:21:28.427Z,5.27
2023-02-06T10:22:28.403Z,5.36
2023-02-06T10:23:28.391Z,5.30
2023-02-06T10:24:28.393Z,5.18
2023-02-06T10:25:28.390Z,5.22
2023-02-06T10:26:28.379Z,5.15
2023-02-06T10:27:28.390Z,5.28
2023-02-06T10:28:28.338Z,5.22
2023-02-06T10:29:28.363Z,5.28
2023-02-06T10:30:28.328Z,5.30
2023-02-06T10:31:28.413Z,5.18
2023-02-06T10:32:28.299Z,5.20
2023-02-06T10:33:28.297Z,5.04
2023-02-06T10:34:28.297Z,4.96
2023-02-06T10:35:28.263Z,4.97
2023-02-06T10:36:28.259Z,4.88
2023-02-06T10:37:28.241Z,4.94
2023-02-06T10:38:28.232Z,4.88
2023-02-06T10:39:28.238Z,4.77
2023-02-06T10:40:28.208Z,4.89
2023-02-06T10:41:28.207Z,5.17
2023-02-06T10:42:28.220Z,5.24
2023-02-06T10:43:28.211Z,5.51
2023-02-06T10:44:28.184Z,5.68
2023-02-06T10:45:28.156Z,5.89
2023-02-06T10:46:28.184Z,5.97
2023-02-06T10:47:28.138Z,6.00
2023-02-06T10:48:28.140Z,6.08
2023-02-06T10:49:28.128Z,5.86
2023-02-06T10:50:28.111Z,5.96
2023-02-06T10:51:28.093Z,6.04
2023-02-06T10:52:28.090Z,6.18
2023-02-06T10:53:28.087Z,6.25
2023-02-06T10:54:29.889Z,6.36
2023-02-06T10:55:28.076Z,6.30
2023-02-06T10:56:28.054Z,6.27
2023-02-06T10:57:28.041Z,6.01
2023-02-06T10:58:28.109Z,5.85
2023-02-06T10:59:28.042Z,5.86
2023-02-06T11:00:28.065Z,5.74
2023-02-06T11:01:28.009Z,5.68
2023-02-06T11:02:28.040Z,5.67
2023-02-06T11:03:27.984Z,5.82
2023-02-06T11:04:27.953Z,5.67
2023-02-06T11:05:27.947Z,5.75
2023-02-06T11:06:27.930Z,5.83
2023-02-06T11:07:27.963Z,5.90
2023-02-06T11:08:28.553Z,5.94
2023-02-06T11:09:27.950Z,6.25
2023-02-06T11:10:28.542Z,6.33
2023-02-06T11:11:27.972Z,6.49
2023-02-06T11:12:27.864Z,6.54
2023-02-06T11:13:28.588Z,6.52
2023-02-06T11:14:27.875Z,6.54
2023-02-06T11:15:28.535Z,6.49
2023-02-06T11:16:28.642Z,6.33
2023-02-06T11:17:27.816Z,6.38
2023-02-06T11:18:27.816Z,6.54
2023-02-06T11:19:27.790Z,6.52
2023-02-06T11:20:27.789Z,6.41
2023-02-06T11:21:27.786Z,6.56
2023-02-06T11:22:27.755Z,6.59
2023-02-06T11:23:27.769Z,6.48
2023-02-06T11:24:27.752Z,6.31
2023-02-06T11:25:27.745Z,6.31
2023-02-06T11:26:27.748Z,6.06
2023-02-06T11:27:27.731Z,5.93
2023-02-06T11:28:27.696Z,5.97
2023-02-06T11:29:27.706Z,6.17
2023-02-06T11:30:28.619Z,6.27
2023-02-06T11:31:27.701Z,6.38
2023-02-06T11:32:27.787Z,6.59
2023-02-06T11:33:27.680Z,6.61
2023-02-06T11:34:28.536Z,6.61
2023-02-06T11:35:27.630Z,6.59
2023-02-06T11:36:27.602Z,6.61
2023-02-06T11:37:27.597Z,6.71
2023-02-06T11:38:27.588Z,6.69
2023-02-06T11:39:27.599Z,6.59
2023-02-06T11:40:27.583Z,6.58
2023-02-06T11:41:27.569Z,6.62
2023-02-06T11:42:27.560Z,6.66
2023-02-06T11:43:27.530Z,6.58
2023-02-06T11:44:27.549Z,6.41
2023-02-06T11:45:27.578Z,6.41
2023-02-06T11:46:27.542Z,6.43
2023-02-06T11:47:27.512Z,6.40
2023-02-06T11:48:27.503Z,6.28
2023-02-06T11:49:27.466Z,6.21
2023-02-06T11:50:27.458Z,6.28
2023-02-06T11:51:27.525Z,6.21
2023-02-06T11:52:27.433Z,6.28
2023-02-06T11:53:27.447Z,6.43
2023-02-06T11:54:27.426Z,6.43
2023-02-06T11:55:27.411Z,6.43
2023-02-06T11:56:27.381Z,6.28
2023-02-06T11:57:27.377Z,6.22
2023-02-06T11:58:27.384Z,6.19
2023-02-06T11:59:27.371Z,6.31
2023-02-06T12:00:27.337Z,6.12
2023-02-06T12:01:27.333Z,6.03
2023-02-06T12:02:27.450Z,6.04
2023-02-06T12:03:27.363Z,5.96
2023-02-06T12:04:27.297Z,6.09
2023-02-06T12:05:28.043Z,5.99
2023-02-06T12:06:27.324Z,5.83
2023-02-06T12:07:27.319Z,5.82
2023-02-06T12:08:28.024Z,5.82
2023-02-06T12:09:27.269Z,6.00
2023-02-06T12:10:27.235Z,5.91
2023-02-06T12:11:27.238Z,5.99
2023-02-06T12:12:27.232Z,5.94
2023-02-06T12:13:27.199Z,6.03
2023-02-06T12:14:27.210Z,5.85
2023-02-06T12:15:45.436Z,5.89
2023-02-06T12:16:28.192Z,5.99
2023-02-06T12:17:29.032Z,6.11
2023-02-06T12:18:27.285Z,6.18
2023-02-06T12:19:28.018Z,6.28
2023-02-06T12:20:27.147Z,6.27
2023-02-06T12:21:27.119Z,6.27
2023-02-06T12:22:27.111Z,6.27
2023-02-06T12:23:29.024Z,6.22
2023-02-06T12:24:27.098Z,6.33
2023-02-06T12:25:27.077Z,6.33
2023-02-06T12:26:27.080Z,6.27
2023-02-06T12:27:27.055Z,6.36
2023-02-06T12:28:27.067Z,6.28
2023-02-06T12:29:27.028Z,6.22
2023-02-06T12:30:27.023Z,6.18
2023-02-06T12:31:27.109Z,6.25
2023-02-06T12:32:27.573Z,6.22
2023-02-06T12:33:26.983Z,6.25
2023-02-06T12:34:26.990Z,6.00
2023-02-06T12:35:27.004Z,5.97
2023-02-06T12:36:26.951Z,5.96
2023-02-06T12:37:26.943Z,5.97
2023-02-06T12:38:26.923Z,5.90
2023-02-06T12:39:26.945Z,5.86
2023-02-06T12:40:26.903Z,5.83
2023-02-06T12:41:27.035Z,5.85
2023-02-06T12:42:26.888Z,5.85
2023-02-06T12:43:27.510Z,5.74
2023-02-06T12:44:26.883Z,5.81
2023-02-06T12:45:28.017Z,5.83
2023-02-06T12:46:26.898Z,5.90
2023-02-06T12:47:26.836Z,5.93
2023-02-06T12:48:26.829Z,6.03
2023-02-06T12:49:26.834Z,6.06
2023-02-06T12:50:27.509Z,6.09
2023-02-06T12:51:28.010Z,6.09
2023-02-06T12:52:26.773Z,6.12
2023-02-06T12:53:26.771Z,6.17
2023-02-06T12:54:26.758Z,6.08
2023-02-06T12:55:27.512Z,6.04
2023-02-06T12:56:26.744Z,6.15
2023-02-06T12:57:26.721Z,6.09
2023-02-06T12:58:26.706Z,6.19
2023-02-06T12:59:27.505Z,6.15
2023-02-06T13:00:28.011Z,6.17
2023-02-06T13:01:31.600Z,6.18
2023-02-06T13:02:28.627Z,6.14
2023-02-06T13:03:27.522Z,6.12
2023-02-06T13:04:29.551Z,6.18
2023-02-06T13:05:26.712Z,6.25
2023-02-06T13:06:27.511Z,6.22
2023-02-06T13:07:26.625Z,6.33
2023-02-06T13:08:27.505Z,6.33
2023-02-06T13:09:29.015Z,6.34
2023-02-06T13:10:26.599Z,6.41
2023-02-06T13:11:26.622Z,6.27
2023-02-06T13:12:27.633Z,6.22
2023-02-06T13:13:26.558Z,6.28
2023-02-06T13:14:26.556Z,6.27
2023-02-06T13:15:26.526Z,6.30
2023-02-06T13:16:26.537Z,6.11
2023-02-06T13:17:30.505Z,6.19
2023-02-06T13:18:28.008Z,6.25